createdAt,value
2016-12-28T00:00:04.247Z,767.83
2016-12-28T00:01:04.256Z,767.98
2016-12-28T00:02:04.294Z,769.14
2016-12-28T00:03:04.335Z,768.82
2016-12-28T00:04:04.259Z,769.48
2016-12-28T00:05:04.251Z,770
2016-12-28T00:06:04.242Z,770.47
2016-12-28T00:07:04.233Z,771.34
2016-12-28T00:08:04.361Z,771.83
2016-12-28T00:09:04.269Z,771.86
2016-12-28T00:10:04.278Z,771.81
2016-12-28T00:11:04.353Z,772.23
2016-12-28T00:12:04.277Z,772.55
2016-12-28T00:13:04.246Z,772.01
2016-12-28T00:14:04.248Z,772.06
2016-12-28T00:15:04.269Z,772.17
2016-12-28T00:16:04.247Z,772.47
2016-12-28T00:17:04.239Z,772.61
2016-12-28T00:18:04.322Z,772.26
2016-12-28T00:19:04.239Z,772.63
2016-12-28T00:20:04.260Z,773.18
2016-12-28T00:21:04.276Z,773.19
2016-12-28T00:22:04.243Z,773.02
2016-12-28T00:23:04.243Z,774.04
2016-12-28T00:24:04.255Z,774.08
2016-12-28T00:25:04.257Z,773.94
2016-12-28T00:26:04.255Z,773.78
2016-12-28T00:27:04.252Z,774.07
2016-12-28T00:28:04.246Z,774.25
2016-12-28T00:29:04.249Z,774.4
2016-12-28T00:30:04.294Z,774.54
2016-12-28T00:31:04.262Z,774.56
2016-12-28T00:32:04.301Z,774.57
2016-12-28T00:33:04.306Z,774.23
2016-12-28T00:34:04.254Z,774.48
2016-12-28T00:35:04.274Z,774.12
2016-12-28T00:36:04.252Z,774.47
2016-12-28T00:37:04.259Z,773.83
2016-12-28T00:38:04.250Z,773.07
2016-12-28T00:39:04.260Z,773.03
2016-12-28T00:40:04.264Z,772.08
2016-12-28T00:41:04.268Z,771.75
2016-12-28T00:42:04.251Z,770.28
2016-12-28T00:43:04.256Z,770.51
2016-12-28T00:44:04.263Z,770
2016-12-28T00:45:04.269Z,768.76
2016-12-28T00:46:04.263Z,768.47
2016-12-28T00:47:04.261Z,767.34
2016-12-28T00:48:04.267Z,766.67
2016-12-28T00:49:04.262Z,765.98
2016-12-28T00:50:04.278Z,765.18
2016-12-28T00:51:04.259Z,764.72
2016-12-28T00:52:04.263Z,764.23
2016-12-28T00:53:04.258Z,764.22
2016-12-28T00:54:04.266Z,763.87
2016-12-28T00:55:04.283Z,763.47
2016-12-28T00:56:04.264Z,763.46
2016-12-28T00:57:04.264Z,764.03
2016-12-28T00:58:04.277Z,763.84
2016-12-28T00:59:04.273Z,762.95
2016-12-28T01:00:04.335Z,763.8
2016-12-28T01:01:04.268Z,763.04
2016-12-28T01:02:04.275Z,763.2
2016-12-28T01:03:04.282Z,763.03
2016-12-28T01:04:04.273Z,762.52
2016-12-28T01:05:04.295Z,762.22
2016-12-28T01:06:04.276Z,760.89
2016-12-28T01:07:04.282Z,759.51
2016-12-28T01:08:04.275Z,758.7
2016-12-28T01:09:04.296Z,758.27
2016-12-28T01:10:04.288Z,757.24
2016-12-28T01:11:04.279Z,755.74
2016-12-28T01:12:04.286Z,756.09
2016-12-28T01:13:04.278Z,755.05
2016-12-28T01:14:04.285Z,754.53
2016-12-28T01:15:04.305Z,753.95
2016-12-28T01:16:04.284Z,753.13
2016-12-28T01:17:04.293Z,752.61
2016-12-28T01:18:04.283Z,751.04
2016-12-28T01:19:04.289Z,750.52
2016-12-28T01:20:04.298Z,749.17
2016-12-28T01:21:04.289Z,748.14
2016-12-28T01:22:04.292Z,746.66
2016-12-28T01:23:04.289Z,745.35
2016-12-28T01:24:04.295Z,744.32
2016-12-28T01:25:04.303Z,743.36
2016-12-28T01:26:04.293Z,742.35
2016-12-28T01:27:04.285Z,741.54
2016-12-28T01:28:04.292Z,741.04
2016-12-28T01:29:04.299Z,739.15
2016-12-28T01:30:04.306Z,739.13
2016-12-28T01:31:04.297Z,737.72
2016-12-28T01:32:04.289Z,736.25
2016-12-28T01:33:04.310Z,736.09
2016-12-28T01:34:04.301Z,733.79
2016-12-28T01:35:04.316Z,733.21
2016-12-28T01:36:04.299Z,731.49
2016-12-28T01:37:04.297Z,730.11
2016-12-28T01:38:04.301Z,727.98
2016-12-28T01:39:04.316Z,725.2
2016-12-28T01:40:04.326Z,722.26
2016-12-28T01:41:04.299Z,719.01
2016-12-28T01:42:04.308Z,715.15
2016-12-28T01:43:04.301Z,711.44
2016-12-28T01:44:04.323Z,707.43
2016-12-28T01:45:04.326Z,703.51
2016-12-28T01:46:04.314Z,699.6
2016-12-28T01:47:04.307Z,696.21
2016-12-28T01:48:04.307Z,692.06
2016-12-28T01:49:04.305Z,688.47
2016-12-28T01:50:04.337Z,685.32
2016-12-28T01:51:04.313Z,682.45
2016-12-28T01:52:04.305Z,679.27
2016-12-28T01:53:04.314Z,676.79
2016-12-28T01:54:04.304Z,673.85
2016-12-28T01:55:04.356Z,670.78
2016-12-28T01:56:04.303Z,667.53
2016-12-28T01:57:04.310Z,664.6
2016-12-28T01:58:04.313Z,661.84
2016-12-28T01:59:04.310Z,659.32
2016-12-28T02:00:04.328Z,656.73
2016-12-28T02:01:04.310Z,653.05
2016-12-28T02:02:04.313Z,649.76
2016-12-28T02:03:04.317Z,647.07
2016-12-28T02:04:04.312Z,644.29
2016-12-28T02:05:04.332Z,640.98
2016-12-28T02:06:04.309Z,638.42
2016-12-28T02:07:04.315Z,635.97
2016-12-28T02:08:04.317Z,632.98
2016-12-28T02:09:04.315Z,631.13
2016-12-28T02:10:04.358Z,628.46
2016-12-28T02:11:04.318Z,625.97
2016-12-28T02:12:04.323Z,623.71
2016-12-28T02:13:04.329Z,620.43
2016-12-28T02:14:04.325Z,618.2
2016-12-28T02:15:04.330Z,615.16
2016-12-28T02:16:04.322Z,613.21
2016-12-28T02:17:04.328Z,611.65
2016-12-28T02:18:04.321Z,609.94
2016-12-28T02:19:04.327Z,607.63
2016-12-28T02:20:04.451Z,606.62
2016-12-28T02:21:04.328Z,605.11
2016-12-28T02:22:04.319Z,603.17
2016-12-28T02:23:04.326Z,600.71
2016-12-28T02:24:04.320Z,599.84
2016-12-28T02:25:04.341Z,597.5
2016-12-28T02:26:04.333Z,595.19
2016-12-28T02:27:04.325Z,593.22
2016-12-28T02:28:04.329Z,590.72
2016-12-28T02:29:04.335Z,589.74
2016-12-28T02:30:04.343Z,587.8
2016-12-28T02:31:04.335Z,587.09
2016-12-28T02:32:04.328Z,584.69
2016-12-28T02:33:04.335Z,583.15
2016-12-28T02:34:04.337Z,581.02
2016-12-28T02:35:04.362Z,579.11
2016-12-28T02:36:04.337Z,577.52
2016-12-28T02:37:04.329Z,575.94
2016-12-28T02:38:04.339Z,574.98
2016-12-28T02:39:04.331Z,572.73
2016-12-28T02:40:04.352Z,570.95
2016-12-28T02:41:04.330Z,569
2016-12-28T02:42:04.337Z,565.93
2016-12-28T02:43:04.342Z,563.99
2016-12-28T02:44:04.333Z,562.06
2016-12-28T02:45:04.356Z,560.28
2016-12-28T02:46:04.353Z,558.22
2016-12-28T02:47:04.342Z,556.64
2016-12-28T02:48:04.347Z,554.44
2016-12-28T02:49:04.341Z,552.44
2016-12-28T02:50:04.364Z,550.23
2016-12-28T02:51:04.334Z,548.06
2016-12-28T02:52:04.339Z,546.87
2016-12-28T02:53:04.346Z,544.08
2016-12-28T02:54:04.354Z,542.05
2016-12-28T02:55:04.360Z,541.48
2016-12-28T02:56:04.349Z,539.68
2016-12-28T02:57:04.343Z,538.45
2016-12-28T02:58:04.337Z,538.05
2016-12-28T02:59:04.345Z,537.07
2016-12-28T03:00:04.363Z,535.43
2016-12-28T03:01:04.339Z,533.58
2016-12-28T03:02:04.350Z,532.76
2016-12-28T03:03:04.352Z,531.95
2016-12-28T03:04:04.367Z,529.47
2016-12-28T03:05:04.373Z,527.83
2016-12-28T03:06:04.349Z,527.9
2016-12-28T03:07:04.363Z,527.17
2016-12-28T03:08:04.349Z,525.28
2016-12-28T03:09:04.353Z,524.28
2016-12-28T03:10:04.363Z,523.88
2016-12-28T03:11:04.357Z,523.43
2016-12-28T03:12:04.349Z,522.25
2016-12-28T03:13:04.355Z,521.43
2016-12-28T03:14:04.346Z,521.03
2016-12-28T03:15:04.365Z,520.17
2016-12-28T03:16:04.346Z,519.14
2016-12-28T03:17:04.350Z,518.09
2016-12-28T03:18:04.359Z,517.45
2016-12-28T03:19:04.360Z,516.44
2016-12-28T03:20:04.380Z,516.07
2016-12-28T03:21:04.357Z,514.83
2016-12-28T03:22:04.350Z,513.63
2016-12-28T03:23:04.356Z,513.64
2016-12-28T03:24:04.358Z,512.44
2016-12-28T03:25:04.370Z,511.44
2016-12-28T03:26:04.357Z,511.24
2016-12-28T03:27:04.355Z,510.22
2016-12-28T03:28:04.358Z,509.32
2016-12-28T03:29:04.353Z,507.81
2016-12-28T03:30:04.375Z,506.38
2016-12-28T03:31:04.359Z,505.68
2016-12-28T03:32:04.367Z,505.45
2016-12-28T03:33:04.357Z,504.62
2016-12-28T03:34:04.363Z,504.17
2016-12-28T03:35:05.379Z,503.52
2016-12-28T03:36:04.362Z,502.27
2016-12-28T03:37:04.391Z,501.99
2016-12-28T03:38:04.362Z,502.06
2016-12-28T03:39:04.368Z,501.37
2016-12-28T03:40:04.376Z,502.02
2016-12-28T03:41:04.368Z,501.29
2016-12-28T03:42:04.373Z,502.1
2016-12-28T03:43:04.366Z,503.13
2016-12-28T03:44:04.370Z,503.28
2016-12-28T03:45:04.382Z,503.9
2016-12-28T03:46:04.371Z,504.05
2016-12-28T03:47:04.364Z,504.68
2016-12-28T03:48:04.362Z,505.37
2016-12-28T03:49:04.383Z,504.43
2016-12-28T03:50:04.393Z,504.91
2016-12-28T03:51:04.366Z,504.46
2016-12-28T03:52:04.374Z,504.01
2016-12-28T03:53:04.367Z,505.19
2016-12-28T03:54:04.387Z,504.47
2016-12-28T03:55:04.394Z,503.89
2016-12-28T03:56:04.372Z,503.13
2016-12-28T03:57:04.378Z,502.53
2016-12-28T03:58:04.385Z,501.72
2016-12-28T03:59:04.380Z,499.84
2016-12-28T04:00:04.400Z,499.46
2016-12-28T04:01:04.378Z,499.49
2016-12-28T04:02:04.380Z,499.73
2016-12-28T04:03:04.384Z,498.7
2016-12-28T04:04:04.398Z,498.49
2016-12-28T04:05:04.390Z,498.29
2016-12-28T04:06:04.388Z,497.61
2016-12-28T04:07:04.388Z,497.41
2016-12-28T04:08:04.387Z,497.79
2016-12-28T04:09:04.378Z,498.02
2016-12-28T04:10:04.400Z,497.75
2016-12-28T04:11:04.378Z,496.75
2016-12-28T04:12:04.382Z,495.79
2016-12-28T04:13:04.377Z,495.58
2016-12-28T04:14:04.381Z,495.98
2016-12-28T04:15:04.405Z,495.16
2016-12-28T04:16:04.380Z,495.62
2016-12-28T04:17:04.390Z,496.18
2016-12-28T04:18:04.381Z,496.22
2016-12-28T04:19:04.405Z,496.47
2016-12-28T04:20:04.892Z,496.03
2016-12-28T04:21:04.386Z,495.65
2016-12-28T04:22:04.392Z,494.6
2016-12-28T04:23:04.398Z,494.83
2016-12-28T04:24:04.390Z,493.14
2016-12-28T04:25:04.403Z,492.29
2016-12-28T04:26:04.397Z,491.31
2016-12-28T04:27:04.387Z,489.76
2016-12-28T04:28:04.394Z,488.69
2016-12-28T04:29:04.401Z,488.45
2016-12-28T04:30:04.409Z,487.42
2016-12-28T04:31:04.399Z,487.66
2016-12-28T04:32:04.391Z,487.6
2016-12-28T04:33:04.396Z,488.72
2016-12-28T04:34:04.449Z,488.28
2016-12-28T04:35:04.412Z,488.68
2016-12-28T04:36:04.402Z,490.83
2016-12-28T04:37:04.397Z,489.76
2016-12-28T04:38:04.398Z,491.03
2016-12-28T04:39:04.397Z,492.08
2016-12-28T04:40:04.424Z,492.3
2016-12-28T04:41:04.404Z,492.25
2016-12-28T04:42:04.403Z,492.86
2016-12-28T04:43:04.406Z,493.3
2016-12-28T04:44:04.396Z,492.87
2016-12-28T04:45:04.433Z,492.99
2016-12-28T04:46:04.408Z,491.74
2016-12-28T04:47:04.406Z,490.3
2016-12-28T04:48:04.412Z,489.03
2016-12-28T04:49:04.404Z,486.98
2016-12-28T04:50:04.420Z,485.54
2016-12-28T04:51:04.413Z,484.97
2016-12-28T04:52:04.410Z,483.53
2016-12-28T04:53:04.417Z,481.65
2016-12-28T04:54:04.409Z,480.58
2016-12-28T04:55:04.432Z,479.95
2016-12-28T04:56:04.409Z,478.26
2016-12-28T04:57:04.416Z,478.46
2016-12-28T04:58:04.410Z,477.01
2016-12-28T04:59:04.414Z,475.76
2016-12-28T05:00:04.436Z,474.11
2016-12-28T05:01:04.414Z,472.64
2016-12-28T05:02:04.406Z,470.9
2016-12-28T05:03:04.415Z,469.87
2016-12-28T05:04:04.420Z,468.58
2016-12-28T05:05:04.437Z,467.28
2016-12-28T05:06:04.426Z,466.24
2016-12-28T05:07:04.426Z,464.73
2016-12-28T05:08:04.426Z,463.46
2016-12-28T05:09:04.421Z,462.41
2016-12-28T05:10:04.431Z,460.7
2016-12-28T05:11:04.420Z,459.42
2016-12-28T05:12:04.435Z,458.34
2016-12-28T05:13:04.434Z,456.84
2016-12-28T05:14:04.420Z,454.72
2016-12-28T05:15:04.435Z,453.7
2016-12-28T05:16:04.420Z,450.1
2016-12-28T05:17:04.427Z,447.56
2016-12-28T05:18:04.422Z,445.57
2016-12-28T05:19:04.427Z,443.48
2016-12-28T05:20:04.448Z,441.82
2016-12-28T05:21:04.427Z,439.05
2016-12-28T05:22:04.435Z,437.17
2016-12-28T05:23:04.427Z,434.57
2016-12-28T05:24:04.434Z,432.61
2016-12-28T05:25:04.457Z,431.57
2016-12-28T05:26:04.435Z,429.87
2016-12-28T05:27:04.441Z,428.82
2016-12-28T05:28:04.449Z,428.17
2016-12-28T05:29:04.439Z,426.31
2016-12-28T05:30:04.454Z,426.13
2016-12-28T05:31:04.441Z,424.18
2016-12-28T05:32:04.433Z,422.61
2016-12-28T05:33:04.443Z,422.44
2016-12-28T05:34:04.439Z,421.77
2016-12-28T05:35:04.456Z,420.24
2016-12-28T05:36:04.441Z,420.51
2016-12-28T05:37:04.440Z,418.77
2016-12-28T05:38:04.445Z,417.76
2016-12-28T05:39:04.440Z,417.12
2016-12-28T05:40:04.473Z,416.47
2016-12-28T05:41:04.449Z,415.82
2016-12-28T05:42:04.454Z,413.82
2016-12-28T05:43:04.454Z,412.92
2016-12-28T05:44:04.456Z,411.37
2016-12-28T05:45:04.470Z,410.55
2016-12-28T05:46:04.446Z,408.58
2016-12-28T05:47:04.459Z,408.24
2016-12-28T05:48:04.453Z,406.89
2016-12-28T05:49:04.455Z,405.87
2016-12-28T05:50:04.466Z,404.8
2016-12-28T05:51:04.458Z,403.52
2016-12-28T05:52:04.461Z,402.69
2016-12-28T05:53:04.456Z,401.83
2016-12-28T05:54:04.465Z,401
2016-12-28T05:55:04.476Z,399.26
2016-12-28T05:56:04.464Z,398.9
2016-12-28T05:57:04.466Z,397.57
2016-12-28T05:58:04.458Z,396.72
2016-12-28T05:59:04.467Z,395.55
2016-12-28T06:00:04.482Z,394.04
2016-12-28T06:01:04.469Z,392.87
2016-12-28T06:02:04.469Z,391.37
2016-12-28T06:03:04.461Z,390.46
2016-12-28T06:04:04.467Z,389.11
2016-12-28T06:05:04.491Z,386.89
2016-12-28T06:06:04.467Z,385.58
2016-12-28T06:07:04.474Z,383.76
2016-12-28T06:08:04.468Z,382.91
2016-12-28T06:09:04.478Z,380.45
2016-12-28T06:10:04.507Z,378.52
2016-12-28T06:11:04.490Z,377.64
2016-12-28T06:12:04.483Z,376.05
2016-12-28T06:13:04.476Z,375.86
2016-12-28T06:14:04.483Z,374.92
2016-12-28T06:15:04.501Z,375.68
2016-12-28T06:16:04.482Z,375.21
2016-12-28T06:17:04.488Z,375.67
2016-12-28T06:18:04.496Z,375.91
2016-12-28T06:19:04.484Z,377.08
2016-12-28T06:20:04.505Z,377.73
2016-12-28T06:21:04.485Z,379.12
2016-12-28T06:22:04.485Z,380.89
2016-12-28T06:23:04.496Z,382.45
2016-12-28T06:24:04.486Z,384.41
2016-12-28T06:25:04.503Z,386.72
2016-12-28T06:26:04.485Z,387.33
2016-12-28T06:27:04.503Z,387.8
2016-12-28T06:28:04.497Z,390.01
2016-12-28T06:29:04.502Z,390.19
2016-12-28T06:30:04.510Z,391.75
2016-12-28T06:31:04.488Z,392.19
2016-12-28T06:32:04.494Z,391.94
2016-12-28T06:33:04.487Z,393.31
2016-12-28T06:34:04.496Z,394.01
2016-12-28T06:35:04.501Z,394.17
2016-12-28T06:36:04.493Z,394.59
2016-12-28T06:37:04.513Z,394.94
2016-12-28T06:38:04.507Z,395.41
2016-12-28T06:39:04.500Z,396.33
2016-12-28T06:40:04.537Z,396.5
2016-12-28T06:41:04.517Z,398.51
2016-12-28T06:42:04.492Z,399.87
2016-12-28T06:43:04.501Z,401.67
2016-12-28T06:44:04.507Z,404.31
2016-12-28T06:45:04.529Z,406.09
2016-12-28T06:46:04.504Z,407.74
2016-12-28T06:47:04.499Z,409.51
2016-12-28T06:48:04.501Z,411.7
2016-12-28T06:49:04.498Z,413.01
2016-12-28T06:50:04.516Z,414.88
2016-12-28T06:51:04.507Z,417.29
2016-12-28T06:52:04.502Z,419.26
2016-12-28T06:53:04.509Z,422.64
2016-12-28T06:54:04.503Z,426.79
2016-12-28T06:55:04.521Z,430.47
2016-12-28T06:56:04.499Z,435.41
2016-12-28T06:57:04.503Z,440.16
2016-12-28T06:58:04.511Z,445.3
2016-12-28T06:59:04.504Z,452.86
2016-12-28T07:00:04.526Z,458.38
2016-12-28T07:01:04.547Z,465.1
2016-12-28T07:02:04.507Z,471.19
2016-12-28T07:03:04.517Z,477.51
2016-12-28T07:04:04.508Z,483.41
2016-12-28T07:05:04.531Z,489.03
2016-12-28T07:06:04.521Z,495.49
2016-12-28T07:07:04.514Z,501.66
2016-12-28T07:08:04.527Z,506.81
2016-12-28T07:09:04.515Z,511.58
2016-12-28T07:10:04.521Z,516.04
2016-12-28T07:11:04.514Z,521.06
2016-12-28T07:12:04.508Z,525.77
2016-12-28T07:13:04.512Z,530.06
2016-12-28T07:14:04.519Z,535.14
2016-12-28T07:15:04.529Z,537.33
2016-12-28T07:16:04.520Z,541.64
2016-12-28T07:17:04.524Z,545.39
2016-12-28T07:18:04.518Z,548.16
2016-12-28T07:19:04.534Z,551.22
2016-12-28T07:20:04.540Z,554.17
2016-12-28T07:21:04.523Z,556.62
2016-12-28T07:22:04.524Z,558.81
2016-12-28T07:23:04.529Z,561.47
2016-12-28T07:24:04.522Z,563.66
2016-12-28T07:25:04.537Z,565.05
2016-12-28T07:26:04.519Z,567.04
2016-12-28T07:27:04.520Z,568.86
2016-12-28T07:28:04.522Z,570.6
2016-12-28T07:29:04.519Z,571.41
2016-12-28T07:30:04.541Z,573.96
2016-12-28T07:31:04.526Z,574.96
2016-12-28T07:32:04.534Z,576.31
2016-12-28T07:33:04.526Z,578.03
2016-12-28T07:34:04.534Z,578.6
2016-12-28T07:35:04.555Z,579.52
2016-12-28T07:36:04.528Z,580.88
2016-12-28T07:37:04.524Z,581.23
2016-12-28T07:38:04.529Z,581.61
2016-12-28T07:39:04.537Z,581.78
2016-12-28T07:40:04.543Z,582.18
2016-12-28T07:41:04.536Z,583.12
2016-12-28T07:42:04.529Z,583.31
2016-12-28T07:43:04.533Z,583.69
2016-12-28T07:44:04.547Z,583.86
2016-12-28T07:45:04.546Z,585.01
2016-12-28T07:46:04.543Z,585.57
2016-12-28T07:47:04.551Z,586.77
2016-12-28T07:48:04.559Z,587.79
2016-12-28T07:49:04.551Z,588.93
2016-12-28T07:50:04.571Z,591.01
2016-12-28T07:51:04.537Z,591.51
2016-12-28T07:52:04.540Z,593.46
2016-12-28T07:53:04.533Z,595.01
2016-12-28T07:54:04.539Z,597.02
2016-12-28T07:55:04.557Z,597.53
2016-12-28T07:56:04.544Z,599.72
2016-12-28T07:57:04.541Z,601.16
2016-12-28T07:58:04.556Z,603.12
2016-12-28T07:59:04.552Z,604.35
2016-12-28T08:00:04.561Z,606.21
2016-12-28T08:01:04.543Z,608.75
2016-12-28T08:02:04.545Z,610.11
2016-12-28T08:03:04.537Z,612.19
2016-12-28T08:04:04.543Z,614.52
2016-12-28T08:05:04.560Z,615.63
2016-12-28T08:06:04.542Z,617.49
2016-12-28T08:07:04.535Z,619.22
2016-12-28T08:08:04.541Z,620.53
2016-12-28T08:09:04.548Z,622.3
2016-12-28T08:10:04.569Z,623.65
2016-12-28T08:11:04.547Z,624.65
2016-12-28T08:12:04.541Z,626.35
2016-12-28T08:13:04.542Z,627.18
2016-12-28T08:14:04.549Z,628.73
2016-12-28T08:15:04.633Z,630.23
2016-12-28T08:16:04.551Z,631.19
2016-12-28T08:17:04.545Z,632.5
2016-12-28T08:18:04.549Z,634.04
2016-12-28T08:19:04.555Z,635.07
2016-12-28T08:20:04.561Z,636.45
2016-12-28T08:21:04.543Z,637.62
2016-12-28T08:22:04.551Z,639.46
2016-12-28T08:23:04.551Z,640.85
2016-12-28T08:24:04.549Z,643.07
2016-12-28T08:25:04.566Z,644.46
2016-12-28T08:26:04.558Z,645.91
2016-12-28T08:27:04.550Z,648.16
2016-12-28T08:28:04.555Z,649.25
2016-12-28T08:29:04.558Z,651.35
2016-12-28T08:30:04.583Z,652.58
2016-12-28T08:31:04.556Z,653.73
2016-12-28T08:32:04.557Z,655.59
2016-12-28T08:33:04.561Z,656.72
2016-12-28T08:34:04.551Z,658.36
2016-12-28T08:35:04.575Z,659.84
2016-12-28T08:36:04.585Z,661.67
2016-12-28T08:37:04.565Z,663.29
2016-12-28T08:38:04.573Z,664.86
2016-12-28T08:39:04.571Z,666.79
2016-12-28T08:40:04.608Z,668.42
2016-12-28T08:41:04.564Z,670.61
2016-12-28T08:42:04.579Z,672.23
2016-12-28T08:43:04.573Z,674.98
2016-12-28T08:44:04.562Z,677.54
2016-12-28T08:45:04.584Z,680.39
2016-12-28T08:46:04.575Z,682.62
2016-12-28T08:47:04.576Z,684.94
2016-12-28T08:48:04.575Z,686.59
2016-12-28T08:49:04.569Z,687.8
2016-12-28T08:50:04.587Z,690.37
2016-12-28T08:51:04.563Z,692.33
2016-12-28T08:52:04.569Z,693.72
2016-12-28T08:53:04.572Z,696.14
2016-12-28T08:54:04.578Z,698.97
2016-12-28T08:55:04.577Z,702
2016-12-28T08:56:04.593Z,703.88
2016-12-28T08:57:04.574Z,706.8
2016-12-28T08:58:04.578Z,708.63
2016-12-28T08:59:04.591Z,710.32
2016-12-28T09:00:04.604Z,710.95
2016-12-28T09:01:04.584Z,712.77
2016-12-28T09:02:04.573Z,713.47
2016-12-28T09:03:04.579Z,714.19
2016-12-28T09:04:04.571Z,715.2
2016-12-28T09:05:04.588Z,716.44
2016-12-28T09:06:04.622Z,718.7
2016-12-28T09:07:04.567Z,720.91
2016-12-28T09:08:04.574Z,721.89
2016-12-28T09:09:04.567Z,724.47
2016-12-28T09:10:04.590Z,726.05
2016-12-28T09:11:04.575Z,726.98
2016-12-28T09:12:04.585Z,727.48
2016-12-28T09:13:04.578Z,729.01
2016-12-28T09:14:04.699Z,729.68
2016-12-28T09:15:17.825Z,730.68
2016-12-28T09:16:35.169Z,732.04
2016-12-28T09:17:38.364Z,733.07
2016-12-28T09:18:28.728Z,733.97
2016-12-28T09:19:31.628Z,734
2016-12-28T09:20:28.774Z,734.9
2016-12-28T09:21:28.739Z,735.58
2016-12-28T09:22:28.766Z,736.13
2016-12-28T09:23:28.733Z,736.27
2016-12-28T09:24:28.737Z,736.62
2016-12-28T09:25:28.749Z,736.76
2016-12-28T09:26:28.719Z,738.26
2016-12-28T09:27:29.509Z,738.94
2016-12-28T09:28:28.720Z,740.22
2016-12-28T09:29:28.742Z,741.43
2016-12-28T09:30:30.017Z,742.76
2016-12-28T09:31:28.725Z,744.26
2016-12-28T09:32:28.736Z,745.63
2016-12-28T09:33:28.733Z,746.15
2016-12-28T09:34:28.731Z,746.67
2016-12-28T09:35:28.748Z,748.12
2016-12-28T09:36:28.745Z,747.91
2016-12-28T09:37:28.746Z,749.24
2016-12-28T09:38:28.749Z,750.19
2016-12-28T09:39:28.748Z,751.71
2016-12-28T09:40:28.762Z,752.89
2016-12-28T09:41:28.746Z,754.37
2016-12-28T09:42:28.746Z,756
2016-12-28T09:43:28.743Z,757.84
2016-12-28T09:44:28.743Z,760.68
2016-12-28T09:45:28.756Z,762.44
2016-12-28T09:46:28.750Z,764.55
2016-12-28T09:47:28.733Z,766.38
2016-12-28T09:48:28.736Z,768.02
2016-12-28T09:49:28.745Z,770.18
2016-12-28T09:50:28.757Z,771.46
2016-12-28T09:51:28.741Z,774.27
2016-12-28T09:52:28.735Z,777.9
2016-12-28T09:53:28.752Z,782.46
2016-12-28T09:54:28.738Z,787.93
2016-12-28T09:55:28.785Z,792.12
2016-12-28T09:56:28.736Z,796.11
2016-12-28T09:57:28.753Z,800.88
2016-12-28T09:58:28.760Z,803.3
2016-12-28T09:59:28.753Z,807
2016-12-28T10:00:28.757Z,809.67
2016-12-28T10:01:28.791Z,809.16
2016-12-28T10:02:28.743Z,813.45
2016-12-28T10:03:28.750Z,815.45
2016-12-28T10:04:28.757Z,817.17
2016-12-28T10:05:28.770Z,818.93
2016-12-28T10:06:28.750Z,820.92
2016-12-28T10:07:28.755Z,823.32
2016-12-28T10:08:28.749Z,825.31
2016-12-28T10:09:28.750Z,826.21
2016-12-28T10:10:28.770Z,828.36
2016-12-28T10:11:28.750Z,831.55
2016-12-28T10:12:28.756Z,834.6
2016-12-28T10:13:28.755Z,836.05
2016-12-28T10:14:28.753Z,837.7
2016-12-28T10:15:28.780Z,838.3
2016-12-28T10:16:28.756Z,838.77
2016-12-28T10:17:28.761Z,840.8
2016-12-28T10:18:29.054Z,842.21
2016-12-28T10:19:28.768Z,842.86
2016-12-28T10:20:28.784Z,843.19
2016-12-28T10:21:28.768Z,841.3
2016-12-28T10:22:28.765Z,841.69
2016-12-28T10:23:28.769Z,841.09
2016-12-28T10:24:28.774Z,839.93
2016-12-28T10:25:28.797Z,839.65
2016-12-28T10:26:28.766Z,838.73
2016-12-28T10:27:28.787Z,839.46
2016-12-28T10:28:28.782Z,839.64
2016-12-28T10:29:28.786Z,839.18
2016-12-28T10:30:29.762Z,839.15
2016-12-28T10:31:28.775Z,839.74
2016-12-28T10:32:28.767Z,840.81
2016-12-28T10:33:28.999Z,842.01
2016-12-28T10:34:28.763Z,844.57
2016-12-28T10:35:28.787Z,846.79
2016-12-28T10:36:28.764Z,848.13
2016-12-28T10:37:28.770Z,848.77
2016-12-28T10:38:28.764Z,849.25
2016-12-28T10:39:28.790Z,850.9
2016-12-28T10:40:28.796Z,852.52
2016-12-28T10:41:28.935Z,854.71
2016-12-28T10:42:28.777Z,856.33
2016-12-28T10:43:28.768Z,856.66
2016-12-28T10:44:28.781Z,861.15
2016-12-28T10:45:28.788Z,863.3
2016-12-28T10:46:28.780Z,865.64
2016-12-28T10:47:28.790Z,868.15
2016-12-28T10:48:28.794Z,870.74
2016-12-28T10:49:28.793Z,873.34
2016-12-28T10:50:28.807Z,875.27
2016-12-28T10:51:28.782Z,878.01
2016-12-28T10:52:28.836Z,881.61
2016-12-28T10:53:28.796Z,884.18
2016-12-28T10:54:28.788Z,885.32
2016-12-28T10:55:28.825Z,887.41
2016-12-28T10:56:28.797Z,888.83
2016-12-28T10:57:28.792Z,890.55
2016-12-28T10:58:28.795Z,892.04
2016-12-28T10:59:28.806Z,894.66
2016-12-28T11:00:28.815Z,897.15
2016-12-28T11:01:28.803Z,899.34
2016-12-28T11:02:28.789Z,901.02
2016-12-28T11:03:28.809Z,903.57
2016-12-28T11:04:28.790Z,905.06
2016-12-28T11:05:28.811Z,906.15
2016-12-28T11:06:28.795Z,908.6
2016-12-28T11:07:28.803Z,909.17
2016-12-28T11:08:28.794Z,908.9
2016-12-28T11:09:28.810Z,909.31
2016-12-28T11:10:28.824Z,909.45
2016-12-28T11:11:28.817Z,910.59
2016-12-28T11:12:28.805Z,911.3
2016-12-28T11:13:28.808Z,911.29
2016-12-28T11:14:28.803Z,911.71
2016-12-28T11:15:28.845Z,912.34
2016-12-28T11:16:28.799Z,913.55
2016-12-28T11:17:28.838Z,913.8
2016-12-28T11:18:28.817Z,914.57
2016-12-28T11:19:28.808Z,915.21
2016-12-28T11:20:28.826Z,915.08
2016-12-28T11:21:28.813Z,914.92
2016-12-28T11:22:28.808Z,914.94
2016-12-28T11:23:28.815Z,913.62
2016-12-28T11:24:28.836Z,913.21
2016-12-28T11:25:28.828Z,912.51
2016-12-28T11:26:28.819Z,912.25
2016-12-28T11:27:28.812Z,912.08
2016-12-28T11:28:28.820Z,911.94
2016-12-28T11:29:28.811Z,912.22
2016-12-28T11:30:29.303Z,912.3
2016-12-28T11:31:29.159Z,912.14
2016-12-28T11:32:28.835Z,912.27
2016-12-28T11:33:28.831Z,912.29
2016-12-28T11:34:28.827Z,911.77
2016-12-28T11:35:28.855Z,911.88
2016-12-28T11:36:28.855Z,911.62
2016-12-28T11:37:28.840Z,911.37
2016-12-28T11:38:28.835Z,911.59
2016-12-28T11:39:28.843Z,911.05
2016-12-28T11:40:28.879Z,910.64
2016-12-28T11:41:28.842Z,910.5
2016-12-28T11:42:28.835Z,910.18
2016-12-28T11:43:28.843Z,910.16
2016-12-28T11:44:28.834Z,910.66
2016-12-28T11:45:28.861Z,911.2
2016-12-28T11:46:28.848Z,911.45
2016-12-28T11:47:28.842Z,912.24
2016-12-28T11:48:28.860Z,911.98
2016-12-28T11:49:28.837Z,912.4
2016-12-28T11:50:28.876Z,910.88
2016-12-28T11:51:28.839Z,910.11
2016-12-28T11:52:28.845Z,907.62
2016-12-28T11:53:28.850Z,906.07
2016-12-28T11:54:28.841Z,903.23
2016-12-28T11:55:28.864Z,901.17
2016-12-28T11:56:28.853Z,899.54
2016-12-28T11:57:28.846Z,898.01
2016-12-28T11:58:28.854Z,896.22
2016-12-28T11:59:28.846Z,894.27
2016-12-28T12:00:28.882Z,892.68
2016-12-28T12:01:28.863Z,891.66
2016-12-28T12:02:28.862Z,889.46
2016-12-28T12:03:28.866Z,888.19
2016-12-28T12:04:28.852Z,886.43
2016-12-28T12:05:28.880Z,885.83
2016-12-28T12:06:28.859Z,885.12
2016-12-28T12:07:28.859Z,885.87
2016-12-28T12:08:28.912Z,885.54
2016-12-28T12:09:28.865Z,885.64
2016-12-28T12:10:28.884Z,885.63
2016-12-28T12:11:28.875Z,885.92
2016-12-28T12:12:28.886Z,885.73
2016-12-28T12:13:28.873Z,885.37
2016-12-28T12:14:28.869Z,885.34
2016-12-28T12:15:28.888Z,886.24
2016-12-28T12:16:28.878Z,886.51
2016-12-28T12:17:28.870Z,887.23
2016-12-28T12:18:28.868Z,887.64
2016-12-28T12:19:28.875Z,888.39
2016-12-28T12:20:28.877Z,889.06
2016-12-28T12:21:28.871Z,889.73
2016-12-28T12:22:28.879Z,890.25
2016-12-28T12:23:28.870Z,891.4
2016-12-28T12:24:28.905Z,891.8
2016-12-28T12:25:28.886Z,892.1
2016-12-28T12:26:28.881Z,892.63
2016-12-28T12:27:28.884Z,893.31
2016-12-28T12:28:28.879Z,894.27
2016-12-28T12:29:28.879Z,896.21
2016-12-28T12:30:28.917Z,896.77
2016-12-28T12:31:28.881Z,896.84